createdAt,value
2022-11-21T00:02:06.674Z,99325.97
2022-11-21T00:04:53.657Z,99323.06
2022-11-21T00:07:40.488Z,99313.50
2022-11-21T00:10:27.811Z,99313.41
2022-11-21T00:13:16.123Z,99313.41
2022-11-21T00:16:09.550Z,99317.66
2022-11-21T00:18:56.658Z,99302.06
2022-11-21T00:21:43.644Z,99296.16
2022-11-21T00:24:30.428Z,99292.59
2022-11-21T00:27:17.650Z,99289.25
2022-11-21T00:30:05.364Z,99283.16
2022-11-21T00:32:54.028Z,99277.87
2022-11-21T00:35:40.814Z,99280.31
2022-11-21T00:38:28.445Z,99280.50
2022-11-21T00:41:15.183Z,99273.59
2022-11-21T00:44:01.965Z,99272.75
2022-11-21T00:46:48.739Z,99255.31
2022-11-21T00:49:37.079Z,99268.22
2022-11-21T00:52:23.700Z,99264.31
2022-11-21T00:55:11.543Z,99261.25
2022-11-21T00:57:58.586Z,99260.75
2022-11-21T01:00:45.438Z,99259.06
2022-11-21T01:03:34.729Z,99261.78
2022-11-21T01:06:23.242Z,99259.56
2022-11-21T01:09:10.318Z,99250.75
2022-11-21T01:11:57.313Z,99251.91
2022-11-21T01:14:44.377Z,99245.50
2022-11-21T01:17:33.925Z,99238.06
2022-11-21T01:20:20.882Z,99230.75
2022-11-21T01:23:09.711Z,99234.75
2022-11-21T01:25:56.790Z,99230.25
2022-11-21T01:28:44.312Z,99230.91
2022-11-21T01:31:31.986Z,99220.50
2022-11-21T01:34:19.202Z,99216.16
2022-11-21T01:37:06.207Z,99214.50
2022-11-21T01:39:55.231Z,99203.84
2022-11-21T01:42:55.479Z,99205.28
2022-11-21T01:45:57.927Z,99200.63
2022-11-21T01:48:50.827Z,99199.59
2022-11-21T01:51:45.203Z,99198.63
2022-11-21T01:54:37.606Z,99186.56
2022-11-21T01:57:29.793Z,99194.72
2022-11-21T02:00:21.678Z,99188.94
2022-11-21T02:03:16.549Z,99192.50
2022-11-21T02:06:04.409Z,99186.25
2022-11-21T02:08:51.923Z,99191.06
2022-11-21T02:11:42.843Z,99190.31
2022-11-21T02:14:31.265Z,99192.34
2022-11-21T02:17:20.185Z,99197.41
2022-11-21T02:20:09.279Z,99199.28
2022-11-21T02:23:07.289Z,99194.88
2022-11-21T02:25:56.086Z,99198.25
2022-11-21T02:28:44.044Z,99198.16
2022-11-21T02:31:30.802Z,99198.09
2022-11-21T02:34:17.725Z,99200.09
2022-11-21T02:37:04.499Z,99195.69
2022-11-21T02:39:52.351Z,99201.72
2022-11-21T02:42:51.432Z,99191.56
2022-11-21T02:45:42.442Z,99189.88
2022-11-21T02:48:29.543Z,99188.84
2022-11-21T02:51:16.656Z,99178.75
2022-11-21T02:54:03.416Z,99174.53
2022-11-21T02:56:50.943Z,99174.88
2022-11-21T02:59:39.388Z,99175.06
2022-11-21T03:02:26.568Z,99175.78
2022-11-21T03:05:17.121Z,99183.25
2022-11-21T03:08:04.958Z,99182.41
2022-11-21T03:10:52.009Z,99178.00
2022-11-21T03:13:39.075Z,99187.88
2022-11-21T03:16:27.275Z,99189.75
2022-11-21T03:19:14.723Z,99184.19
2022-11-21T03:22:01.697Z,99184.34
2022-11-21T03:24:48.813Z,99193.13
2022-11-21T03:27:35.753Z,99200.41
2022-11-21T03:30:24.468Z,99194.06
2022-11-21T03:33:12.832Z,99202.94
2022-11-21T03:35:59.670Z,99189.59
2022-11-21T03:41:33.920Z,99181.16
2022-11-21T03:44:20.678Z,99173.88
2022-11-21T03:47:07.647Z,99179.47
2022-11-21T03:49:56.015Z,99184.87
2022-11-21T03:52:43.022Z,99186.56
2022-11-21T03:55:29.716Z,99190.56
2022-11-21T03:58:16.544Z,99202.56
2022-11-21T04:01:03.417Z,99203.34
2022-11-21T04:03:51.270Z,99205.19
2022-11-21T04:06:39.408Z,99208.50
2022-11-21T04:09:26.837Z,99207.66
2022-11-21T04:12:13.952Z,99206.31
2022-11-21T04:15:00.883Z,99207.56
2022-11-21T04:17:47.711Z,99211.13
2022-11-21T04:20:34.997Z,99211.13
2022-11-21T04:23:23.718Z,99219.84
2022-11-21T04:26:11.017Z,99224.19
2022-11-21T04:28:58.958Z,99226.00
2022-11-21T04:31:46.165Z,99232.38
2022-11-21T04:34:32.986Z,99233.47
2022-11-21T04:37:20.319Z,99236.78
2022-11-21T04:40:09.669Z,99236.50
2022-11-21T04:42:56.784Z,99241.00
2022-11-21T04:45:44.593Z,99238.97
2022-11-21T04:48:32.629Z,99246.16
2022-11-21T04:51:19.629Z,99243.28
2022-11-21T04:54:06.897Z,99251.12
2022-11-21T04:56:55.076Z,99253.81
2022-11-21T04:59:41.854Z,99255.69
2022-11-21T05:02:28.725Z,99260.84
2022-11-21T05:05:16.202Z,99261.28
2022-11-21T05:08:03.331Z,99257.53
2022-11-21T05:11:08.128Z,99264.25
2022-11-21T05:13:56.697Z,99269.63
2022-11-21T05:16:44.004Z,99269.97
2022-11-21T05:19:30.886Z,99273.53
2022-11-21T05:22:17.675Z,99285.84
2022-11-21T05:25:04.692Z,99283.00
2022-11-21T05:27:51.782Z,99290.47
2022-11-21T05:30:39.945Z,99285.72
2022-11-21T05:33:26.751Z,99302.59
2022-11-21T05:36:13.454Z,99298.91
2022-11-21T05:39:00.470Z,99294.44
2022-11-21T05:41:47.276Z,99303.16
2022-11-21T05:44:33.555Z,99308.53
2022-11-21T05:47:22.042Z,99312.09
2022-11-21T05:50:10.471Z,99316.06
2022-11-21T05:52:57.059Z,99323.19
2022-11-21T05:55:44.787Z,99329.69
2022-11-21T05:58:32.086Z,99331.06
2022-11-21T06:01:39.162Z,99331.44
2022-11-21T06:04:26.884Z,99340.47
2022-11-21T06:07:13.934Z,99346.63
2022-11-21T06:10:01.308Z,99342.03
2022-11-21T06:12:48.405Z,99348.50
2022-11-21T06:15:35.321Z,99352.75
2022-11-21T06:18:22.449Z,99365.47
2022-11-21T06:21:15.265Z,99359.06
2022-11-21T06:24:02.166Z,99364.91
2022-11-21T06:26:49.202Z,99363.09
2022-11-21T06:29:36.008Z,99366.69
2022-11-21T06:32:23.331Z,99371.72
2022-11-21T06:35:10.373Z,99379.03
2022-11-21T06:37:59.135Z,99384.00
2022-11-21T06:40:45.965Z,99386.38
2022-11-21T06:43:33.131Z,99385.97
2022-11-21T06:46:19.982Z,99399.44
2022-11-21T06:49:07.420Z,99407.56
2022-11-21T06:51:54.588Z,99417.38
2022-11-21T06:54:43.407Z,99415.06
2022-11-21T06:57:30.175Z,99419.13
2022-11-21T07:00:18.620Z,99420.47
2022-11-21T07:03:05.476Z,99428.50
2022-11-21T07:05:53.668Z,99433.53
2022-11-21T07:08:41.345Z,99440.53
2022-11-21T07:11:29.876Z,99450.03
2022-11-21T07:14:18.230Z,99448.94
2022-11-21T07:17:05.425Z,99452.97
2022-11-21T07:19:52.119Z,99451.00
2022-11-21T07:22:39.618Z,99460.59
2022-11-21T07:25:26.510Z,99453.50
2022-11-21T07:28:14.895Z,99454.91
2022-11-21T07:31:07.006Z,99457.50
2022-11-21T07:33:57.149Z,99453.50
2022-11-21T07:36:44.214Z,99455.66
2022-11-21T07:39:31.396Z,99443.53
2022-11-21T07:42:18.301Z,99449.56
2022-11-21T07:45:07.875Z,99454.66
2022-11-21T07:47:58.774Z,99450.03
2022-11-21T07:50:45.667Z,99450.22
2022-11-21T07:53:32.363Z,99455.88
2022-11-21T07:56:19.867Z,99459.91
2022-11-21T07:59:06.842Z,99461.28
2022-11-21T08:01:55.249Z,99464.22
2022-11-21T08:04:42.475Z,99473.25
2022-11-21T08:07:29.210Z,99475.34
2022-11-21T08:10:17.456Z,99470.78
2022-11-21T08:13:03.895Z,99478.56
2022-11-21T08:15:51.015Z,99483.50
2022-11-21T08:18:39.032Z,99484.44
2022-11-21T08:21:25.911Z,99483.88
2022-11-21T08:24:14.685Z,99494.78
2022-11-21T08:27:01.745Z,99497.78
2022-11-21T08:29:49.082Z,99493.66
2022-11-21T08:32:36.220Z,99492.31
2022-11-21T08:35:24.139Z,99501.06
2022-11-21T08:38:11.412Z,99504.03
2022-11-21T08:41:16.242Z,99509.88
2022-11-21T08:44:08.658Z,99508.00
2022-11-21T08:46:59.090Z,99509.28
2022-11-21T08:49:46.093Z,99504.75
2022-11-21T08:52:34.121Z,99510.78
2022-11-21T08:55:23.074Z,99503.47
2022-11-21T08:58:09.891Z,99503.91
2022-11-21T09:00:57.216Z,99506.44
2022-11-21T09:03:44.270Z,99505.66
2022-11-21T09:06:32.058Z,99509.31
2022-11-21T09:09:25.530Z,99506.91
2022-11-21T09:12:13.219Z,99502.31
2022-11-21T09:15:17.503Z,99502.38
2022-11-21T09:18:05.341Z,99506.44
2022-11-21T09:20:52.139Z,99505.78
2022-11-21T09:23:39.551Z,99514.53
2022-11-21T09:26:27.610Z,99521.53
2022-11-21T09:29:15.317Z,99522.16
2022-11-21T09:32:02.480Z,99526.31
2022-11-21T09:34:49.558Z,99531.16
2022-11-21T09:37:37.895Z,99533.25
2022-11-21T09:40:26.165Z,99531.03
2022-11-21T09:43:36.103Z,99535.34
2022-11-21T09:46:32.690Z,99538.34
2022-11-21T09:49:20.595Z,99535.41
2022-11-21T09:52:10.059Z,99528.94
2022-11-21T09:55:01.755Z,99535.75
2022-11-21T09:57:50.092Z,99531.81
2022-11-21T10:00:38.227Z,99536.41
2022-11-21T10:03:28.445Z,99538.38
2022-11-21T10:06:20.382Z,99542.81
2022-11-21T10:09:17.450Z,99553.97
2022-11-21T10:12:30.867Z,99552.09
2022-11-21T10:15:33.096Z,99553.59
2022-11-21T10:18:41.388Z,99548.34
2022-11-21T10:21:47.414Z,99546.72
2022-11-21T10:24:46.067Z,99543.44
2022-11-21T10:27:37.674Z,99546.53
2022-11-21T10:30:25.201Z,99550.28
2022-11-21T10:33:19.270Z,99550.13
2022-11-21T10:36:14.896Z,99546.06
2022-11-21T10:39:07.414Z,99547.09
2022-11-21T10:41:59.972Z,99548.63
2022-11-21T10:45:05.290Z,99547.34
2022-11-21T10:47:54.224Z,99543.25
2022-11-21T10:50:51.271Z,99531.91
2022-11-21T10:54:07.647Z,99525.78
2022-11-21T10:57:00.044Z,99523.44
2022-11-21T11:00:00.607Z,99529.94
2022-11-21T11:03:04.696Z,99520.50
2022-11-21T11:05:57.890Z,99525.38
2022-11-21T11:08:53.332Z,99515.03
2022-11-21T11:11:40.385Z,99513.81
2022-11-21T11:14:32.479Z,99520.50
2022-11-21T11:17:28.118Z,99512.94
2022-11-21T11:20:33.728Z,99511.81
2022-11-21T11:23:27.266Z,99507.50
2022-11-21T11:26:29.590Z,99515.41
2022-11-21T11:29:18.228Z,99504.87
2022-11-21T11:32:20.936Z,99506.56
2022-11-21T11:35:22.384Z,99502.31
2022-11-21T11:38:13.778Z,99504.00
2022-11-21T11:41:04.779Z,99499.94
2022-11-21T11:44:19.009Z,99493.13
2022-11-21T11:47:31.622Z,99499.91
2022-11-21T11:50:22.541Z,99494.44
2022-11-21T11:53:15.262Z,99501.41
2022-11-21T11:56:09.375Z,99497.81
2022-11-21T11:59:04.936Z,99505.84
2022-11-21T12:01:56.876Z,99513.50
2022-11-21T12:04:49.897Z,99510.12
2022-11-21T12:11:12.954Z,99509.66
2022-11-21T12:14:06.389Z,99502.00
2022-11-21T12:16:54.026Z,99510.19
2022-11-21T12:19:40.848Z,99489.34
2022-11-21T12:22:27.745Z,99489.44
2022-11-21T12:25:15.358Z,99493.50
2022-11-21T12:28:08.456Z,99501.59
2022-11-21T12:31:09.711Z,99496.31
2022-11-21T12:34:04.679Z,99495.97
2022-11-21T12:36:58.263Z,99497.78
2022-11-21T12:40:13.291Z,99500.50
2022-11-21T12:43:13.592Z,99494.62
2022-11-21T12:46:10.155Z,99485.09
2022-11-21T12:49:25.486Z,99492.06
2022-11-21T12:52:41.810Z,99488.00
2022-11-21T12:55:36.052Z,99491.13
2022-11-21T12:58:30.964Z,99481.28
2022-11-21T13:01:26.486Z,99473.00
2022-11-21T13:04:19.103Z,99476.78
2022-11-21T13:07:08.336Z,99461.78
2022-11-21T13:09:58.720Z,99460.97
2022-11-21T13:12:52.999Z,99453.03
2022-11-21T13:15:47.633Z,99452.09
2022-11-21T13:18:42.902Z,99447.97
2022-11-21T13:21:43.887Z,99438.75
2022-11-21T13:24:57.367Z,99430.47
2022-11-21T13:27:44.945Z,99431.25
2022-11-21T13:30:32.081Z,99416.47
2022-11-21T13:33:48.437Z,99423.44
2022-11-21T13:36:43.035Z,99416.38
2022-11-21T13:39:31.839Z,99418.75
2022-11-21T13:42:36.202Z,99413.28
2022-11-21T13:45:43.600Z,99416.97
2022-11-21T13:48:58.213Z,99405.84
2022-11-21T13:51:52.220Z,99415.94
2022-11-21T13:55:12.611Z,99420.63
2022-11-21T13:58:14.580Z,99408.28
2022-11-21T14:01:15.023Z,99404.72
2022-11-21T14:04:32.634Z,99410.53
2022-11-21T14:07:31.073Z,99413.91
2022-11-21T14:10:33.704Z,99411.03
2022-11-21T14:13:29.078Z,99405.28
2022-11-21T14:16:28.539Z,99411.47
2022-11-21T14:19:19.856Z,99402.62
2022-11-21T14:22:06.876Z,99411.78
2022-11-21T14:24:56.552Z,99401.22
2022-11-21T14:27:47.834Z,99400.16
2022-11-21T14:30:37.510Z,99403.16
2022-11-21T14:33:26.431Z,99402.28
2022-11-21T14:36:16.611Z,99404.19
2022-11-21T14:42:17.650Z,99390.63
2022-11-21T14:45:09.987Z,99409.31
2022-11-21T14:47:57.219Z,99401.53
2022-11-21T14:50:44.546Z,99402.72
2022-11-21T14:53:33.380Z,99397.44
2022-11-21T14:56:23.882Z,99404.69
2022-11-21T14:59:23.455Z,99405.44
2022-11-21T15:02:15.458Z,99399.50
2022-11-21T15:05:04.723Z,99399.84
2022-11-21T15:08:05.410Z,99401.72
2022-11-21T15:11:01.697Z,99395.88
2022-11-21T15:17:05.092Z,99383.28
2022-11-21T15:20:11.154Z,99390.47
2022-11-21T15:23:00.578Z,99392.34
2022-11-21T15:25:48.326Z,99388.97
2022-11-21T15:28:35.545Z,99381.94
2022-11-21T15:31:23.754Z,99398.56
2022-11-21T15:34:34.274Z,99398.03
2022-11-21T15:37:08.559Z,99393.16
2022-11-21T15:39:43.328Z,99392.38
2022-11-21T15:42:37.986Z,99400.63
2022-11-21T15:45:25.348Z,99390.09
2022-11-21T15:47:55.573Z,99391.97
2022-11-21T15:50:26.311Z,99367.38
2022-11-21T15:52:55.006Z,99362.97
2022-11-21T15:55:26.490Z,99355.84
2022-11-21T15:57:55.053Z,99355.84
2022-11-21T16:00:23.320Z,99352.34
2022-11-21T16:02:52.495Z,99354.22
2022-11-21T16:05:20.912Z,99345.75
2022-11-21T16:07:50.514Z,99338.13
2022-11-21T16:10:26.161Z,99332.44
2022-11-21T16:12:55.963Z,99327.63
2022-11-21T16:15:24.796Z,99329.91
2022-11-21T16:17:52.927Z,99324.41
2022-11-21T16:20:21.197Z,99319.56
2022-11-21T16:22:51.032Z,99317.22
2022-11-21T16:25:19.459Z,99309.75
2022-11-21T16:27:47.630Z,99296.88
2022-11-21T16:30:16.410Z,99294.50
2022-11-21T16:32:44.924Z,99293.72
2022-11-21T16:35:13.311Z,99283.59
2022-11-21T16:37:41.898Z,99292.75
2022-11-21T16:40:13.446Z,99284.59
2022-11-21T16:42:41.901Z,99287.97
2022-11-21T16:45:11.926Z,99290.69
2022-11-21T16:47:44.362Z,99289.06
2022-11-21T16:50:17.832Z,99286.75
2022-11-21T16:52:47.416Z,99278.13
2022-11-21T16:55:17.194Z,99279.19
2022-11-21T16:57:45.708Z,99280.31
2022-11-21T17:00:15.107Z,99284.78
2022-11-21T17:02:44.062Z,99284.50
2022-11-21T17:05:14.052Z,99291.28
2022-11-21T17:07:42.974Z,99297.31
2022-11-21T17:10:11.867Z,99297.69
2022-11-21T17:12:44.673Z,99290.50
2022-11-21T17:15:15.223Z,99293.84
2022-11-21T17:17:44.005Z,99284.97
2022-11-21T17:20:14.227Z,99295.38
2022-11-21T17:22:42.541Z,99294.38
2022-11-21T17:25:11.504Z,99288.22
2022-11-21T17:27:39.860Z,99285.53
2022-11-21T17:30:10.834Z,99278.16
2022-11-21T17:32:39.446Z,99264.97
2022-11-21T17:35:09.066Z,99268.47
2022-11-21T17:37:37.450Z,99263.38
2022-11-21T17:40:10.846Z,99253.81
2022-11-21T17:42:41.033Z,99246.78
2022-11-21T17:45:12.018Z,99244.16
2022-11-21T17:47:41.928Z,99239.09
2022-11-21T17:50:10.861Z,99242.41
2022-11-21T17:52:39.775Z,99241.16
2022-11-21T17:55:08.602Z,99237.38
2022-11-21T17:57:37.214Z,99237.13
2022-11-21T18:00:06.408Z,99227.31
2022-11-21T18:02:37.624Z,99227.22
2022-11-21T18:05:06.655Z,99222.50
2022-11-21T18:07:35.130Z,99213.44
2022-11-21T18:10:27.373Z,99203.31
2022-11-21T18:12:52.093Z,99192.91
2022-11-21T18:15:20.575Z,99185.69
2022-11-21T18:17:50.597Z,99178.28
2022-11-21T18:20:19.004Z,99185.81
2022-11-21T18:22:48.778Z,99182.00
2022-11-21T18:25:17.206Z,99164.03
2022-11-21T18:27:48.839Z,99150.00
2022-11-21T18:30:22.855Z,99149.75
2022-11-21T18:32:52.683Z,99147.28
2022-11-21T18:35:21.075Z,99147.81
2022-11-21T18:37:50.009Z,99139.84
2022-11-21T18:40:18.542Z,99133.94
2022-11-21T18:42:47.338Z,99128.00
2022-11-21T18:45:15.927Z,99124.63
2022-11-21T18:47:44.209Z,99129.94
2022-11-21T18:50:17.388Z,99122.59
2022-11-21T18:52:47.232Z,99113.09
2022-11-21T18:55:34.949Z,99116.50
2022-11-21T18:58:22.683Z,99116.00
2022-11-21T19:01:13.796Z,99114.88
2022-11-21T19:04:02.048Z,99111.19
2022-11-21T19:06:50.321Z,99114.88
2022-11-21T19:09:39.492Z,99107.94
2022-11-21T19:12:26.599Z,99106.69
2022-11-21T19:15:14.257Z,99099.75
2022-11-21T19:18:01.528Z,99100.78
2022-11-21T19:20:48.957Z,99101.75
2022-11-21T19:23:39.372Z,99106.44
2022-11-21T19:26:26.909Z,99107.59
2022-11-21T19:29:13.885Z,99105.16
2022-11-21T19:32:01.204Z,99107.88
2022-11-21T19:34:48.062Z,99097.03
2022-11-21T19:37:35.624Z,99084.94
2022-11-21T19:40:23.909Z,99097.81
2022-11-21T19:43:11.320Z,99089.25
2022-11-21T19:46:02.880Z,99100.94
2022-11-21T19:48:50.776Z,99096.09
2022-11-21T19:51:40.323Z,99096.78
2022-11-21T19:54:27.928Z,99102.44
2022-11-21T19:57:16.999Z,99098.91
2022-11-21T20:00:06.049Z,99099.66
2022-11-21T20:02:56.434Z,99095.84
2022-11-21T20:05:43.846Z,99095.50
2022-11-21T20:08:30.742Z,99091.53
2022-11-21T20:11:18.172Z,99080.28
2022-11-21T20:14:06.337Z,99073.44
2022-11-21T20:16:54.082Z,99065.56
2022-11-21T20:19:42.071Z,99064.94
2022-11-21T20:22:32.304Z,99072.78
2022-11-21T20:25:19.316Z,99066.34
2022-11-21T20:28:11.520Z,99063.47
2022-11-21T20:31:06.495Z,99051.78
2022-11-21T20:33:55.081Z,99046.38
2022-11-21T20:36:43.400Z,99051.00
2022-11-21T20:39:32.297Z,99058.72
2022-11-21T20:42:19.189Z,99070.56
2022-11-21T20:48:20.071Z,99085.25
2022-11-21T20:54:14.539Z,99084.16
2022-11-21T20:57:01.805Z,99083.97
2022-11-21T20:59:48.679Z,99089.44
2022-11-21T21:02:36.529Z,99086.94
2022-11-21T21:05:26.003Z,99083.19
2022-11-21T21:08:13.251Z,99084.66
2022-11-21T21:11:06.549Z,99088.97
2022-11-21T21:13:53.816Z,99086.63
2022-11-21T21:16:40.726Z,99085.16
2022-11-21T21:19:27.639Z,99083.25
2022-11-21T21:22:16.232Z,99093.19
2022-11-21T21:25:03.588Z,99089.41
2022-11-21T21:27:50.533Z,99083.25
2022-11-21T21:30:40.556Z,99084.78
2022-11-21T21:33:27.416Z,99071.19
2022-11-21T21:36:16.266Z,99070.63
2022-11-21T21:39:05.243Z,99068.59
2022-11-21T21:41:52.606Z,99066.56
2022-11-21T21:44:39.945Z,99063.69
2022-11-21T21:47:27.205Z,99056.44
2022-11-21T21:50:16.096Z,99060.66
2022-11-21T21:53:03.389Z,99051.00
2022-11-21T21:55:51.717Z,99052.56
2022-11-21T21:58:41.288Z,99046.78
2022-11-21T22:01:30.103Z,99053.56
2022-11-21T22:04:17.632Z,99041.37
2022-11-21T22:07:05.642Z,99038.00
2022-11-21T22:09:52.890Z,99047.13
2022-11-21T22:12:43.985Z,99040.44
2022-11-21T22:15:32.166Z,99037.91
2022-11-21T22:18:19.124Z,99034.78
2022-11-21T22:21:14.436Z,99030.00
2022-11-21T22:24:24.111Z,99023.78
2022-11-21T22:27:09.230Z,99027.75
2022-11-21T22:29:57.298Z,99032.75
2022-11-21T22:32:44.186Z,99030.38
2022-11-21T22:35:32.717Z,99025.56
2022-11-21T22:38:19.919Z,99028.84
2022-11-21T22:41:08.805Z,99018.28
2022-11-21T22:43:57.578Z,99021.56
2022-11-21T22:46:45.708Z,99023.25
2022-11-21T22:49:32.699Z,99017.00
2022-11-21T22:52:19.817Z,99006.09
2022-11-21T22:55:08.406Z,98998.91
2022-11-21T22:57:55.624Z,99005.25
2022-11-21T23:00:43.095Z,98996.06
2022-11-21T23:03:32.821Z,98990.56
2022-11-21T23:06:21.510Z,98989.63
2022-11-21T23:09:08.771Z,98997.56
2022-11-21T23:11:56.300Z,98982.94
2022-11-21T23:14:43.213Z,98986.91
2022-11-21T23:17:30.669Z,98977.47
2022-11-21T23:20:19.414Z,98979.00
2022-11-21T23:23:06.778Z,98982.34
2022-11-21T23:25:53.755Z,98973.22
2022-11-21T23:28:40.933Z,98972.03
2022-11-21T23:31:27.706Z,98968.81
2022-11-21T23:34:15.152Z,98965.00
2022-11-21T23:37:03.672Z,98968.81
2022-11-21T23:39:51.188Z,98964.25
2022-11-21T23:42:38.266Z,98962.47
2022-11-21T23:45:25.626Z,98954.44
2022-11-21T23:48:12.949Z,98951.47
2022-11-21T23:51:02.089Z,98942.81
2022-11-21T23:53:50.474Z,98933.87
2022-11-21T23:56:37.845Z,98936.50
2022-11-21T23:59:24.854Z,98933.87
